Aérodrome :
LOGIN :

S'inscrire | Disclaimer

   EN    FR    IT 

 










Légende :    VFR   VFR Marginal   IFR   IFR Intensif   IFR Très Intensif
Visi : 
Plafond : 
>= 8 km
>= 3000ft
5 à 8 km
1000 à 3000 ft
1500m à 5 km
500 à 1000 ft
800 à 1500m
200 à 500 ft
< 800m
< 200 ft
Symboles :   Orages  Brouillard  Fortes neiges  Fortes précipitations  Vent > 20 kt
SIGMETs :   Divers  Orages  Givrage  Turbulence  Onde Orograph.  Cendres Volcan.






- Altitude de l'aérodrome : 978 ft
- Code IATA : LNZ


LOWL - Linz

DERNIER METAR :
  • 100650Z VRB02KT CAVOK 11/05 Q1025 NOSIG

METARs EXPIRÉS :
  • 100620Z VRB02KT CAVOK 09/05 Q1025 NOSIG
  • 100550Z VRB02KT CAVOK 08/05 Q1025 NOSIG
  • 100520Z 18003KT 140V210 CAVOK 07/04 Q1025 NOSIG
  • 100450Z 33004KT 170V340 CAVOK 08/04 Q1025 NOSIG
  • 100420Z 29003KT CAVOK 08/03 Q1025 NOSIG

TAF TAF LOWL
Valide du 10 à 06h jusqu'au 11 à 06h UTC


100515Z 1006/1106 VRB03KT CAVOK TX21/1014Z TN07/1104Z



MET'MAP, la Météo Aéronautique d'un coup d'oeil ! - Copyright ORBIFLY Décembre 2007 - Disclaimer

ORBIFLY MET'MAP TEAM :

Programmation & Développement : Alexandra Zaïnal
Sur une idée originale de : Baudouin d'Aumeries
Assistance à la programmation : Marc-Olivier Méhu
Soutien technique & logistique : Manuel Goepfert

Contact : metmap@orbifly.com




SOURCES & CREDITS :

   NOAA